Time;durP1;ratioP1;P1;durP2;ratioP2;P2;SDS_P1;SDS_P2;PMS_P1;PMS_P2;Temp;Humidity;BMP_temperature;BMP_pressure;BME280_temperature;BME280_humidity;BME280_pressure;Samples;Min_cycle;Max_cycle;Signal;HPM_P1;HPM_P2
2023/10/07 00:00:47;;;;;;;7.68;1.80;;;;;;;15.38;nan;99635.63;2090306;28;20871;-75
2023/10/07 00:01:49;;;;;;;2.47;1.67;;;;;;;15.39;nan;99631.81;2101013;28;20037;-74
2023/10/07 00:02:51;;;;;;;5.40;1.80;;;;;;;15.41;nan;99612.53;2106600;28;20107;-74
2023/10/07 00:03:54;;;;;;;4.45;1.67;;;;;;;15.40;nan;99614.44;2114193;27;20035;-75
2023/10/07 00:04:58;;;;;;;4.35;1.65;;;;;;;15.41;nan;99637.69;2114899;28;20039;-75
2023/10/07 00:06:09;;;;;;;2.28;1.33;;;;;;;15.42;nan;99597.88;2114734;28;20040;-74
2023/10/07 00:07:12;;;;;;;5.65;1.80;;;;;;;15.43;nan;99575.84;2113228;28;20806;-75
2023/10/07 00:08:26;;;;;;;3.92;1.40;;;;;;;15.43;nan;99619.19;2107067;28;20029;-75
2023/10/07 00:09:29;;;;;;;4.70;1.67;;;;;;;15.45;nan;99600.69;2103187;28;20890;-75
2023/10/07 00:10:31;;;;;;;5.03;1.80;;;;;;;15.46;nan;99582.53;2089587;28;20927;-75
2023/10/07 00:11:34;;;;;;;4.63;1.75;;;;;;;15.46;nan;99583.31;2073480;28;20872;-74
2023/10/07 00:12:36;;;;;;;4.53;1.88;;;;;;;15.46;nan;99579.81;2082499;28;20845;-74
2023/10/07 00:13:42;;;;;;;2.70;1.70;;;;;;;15.46;nan;99583.31;2109180;27;20051;-76
2023/10/07 00:14:44;;;;;;;2.28;1.70;;;;;;;15.45;nan;99553.88;2097824;28;20235;-73
2023/10/07 00:15:51;;;;;;;1.95;1.40;;;;;;;15.44;nan;99580.13;2089569;28;20024;-73
2023/10/07 00:16:54;;;;;;;4.47;1.60;;;;;;;15.45;nan;99581.75;2090324;28;20042;-73
2023/10/07 00:18:11;;;;;;;3.00;1.40;;;;;;;15.47;nan;99594.94;2096811;28;20044;-73
2023/10/07 00:19:13;;;;;;;4.30;1.58;;;;;;;15.48;nan;99566.72;2099741;28;20057;-73
2023/10/07 00:20:20;;;;;;;3.72;1.58;;;;;;;15.49;nan;99568.31;2089857;28;20208;-73
2023/10/07 00:21:27;;;;;;;7.25;1.50;;;;;;;15.49;nan;99563.69;2107575;28;20028;-73
2023/10/07 00:22:40;;;;;;;5.20;1.63;;;;;;;15.48;nan;99580.28;2105218;28;20103;-73
2023/10/07 00:23:42;;;;;;;2.35;1.38;;;;;;;15.47;nan;99582.16;2100737;27;20910;-73
2023/10/07 00:24:48;;;;;;;2.10;1.48;;;;;;;15.48;nan;99581.06;2106259;28;20074;-72
2023/10/07 00:25:54;;;;;;;2.75;1.58;;;;;;;15.51;nan;99576.91;2106838;28;20155;-73
2023/10/07 00:26:59;;;;;;;4.07;1.50;;;;;;;15.51;nan;99560.66;2114493;28;20036;-73
2023/10/07 00:28:06;;;;;;;3.72;1.52;;;;;;;15.51;nan;99572.28;2090032;28;20044;-73
2023/10/07 00:29:12;;;;;;;4.93;1.40;;;;;;;15.51;nan;99564.16;2095777;28;20126;-73
2023/10/07 00:30:21;;;;;;;3.40;1.42;;;;;;;15.51;nan;99561.44;2107905;27;21131;-72
2023/10/07 00:31:27;;;;;;;3.50;1.55;;;;;;;15.52;nan;99552.16;2116234;27;20134;-73
2023/10/07 00:32:32;;;;;;;2.92;1.45;;;;;;;15.55;nan;99556.13;2115325;27;20029;-73
2023/10/07 00:34:55;;;;;;;5.32;1.50;;;;;;;15.56;nan;99556.91;2097748;28;20031;-73
2023/10/07 00:36:04;;;;;;;5.22;1.27;;;;;;;15.56;nan;99565.03;2082006;28;20868;-72
2023/10/07 00:37:07;;;;;;;5.90;1.35;;;;;;;15.56;nan;99548.78;2099360;28;20118;-73
2023/10/07 00:38:14;;;;;;;2.92;1.20;;;;;;;15.57;nan;99550.38;2088458;28;20049;-73
2023/10/07 00:39:23;;;;;;;8.00;1.38;;;;;;;15.55;nan;99541.81;2088507;28;20030;-73
2023/10/07 00:40:33;;;;;;;3.45;1.20;;;;;;;15.55;nan;99509.28;2098716;28;20832;-73
2023/10/07 00:41:46;;;;;;;3.97;1.38;;;;;;;15.53;nan;99539.41;2098867;28;20036;-73
2023/10/07 00:42:51;;;;;;;3.83;1.73;;;;;;;15.52;nan;99538.63;2092804;28;20032;-73
2023/10/07 00:43:58;;;;;;;3.72;1.30;;;;;;;15.53;nan;99537.50;2098004;28;20045;-73
2023/10/07 00:45:12;;;;;;;5.95;1.35;;;;;;;15.53;nan;99526.66;2107306;28;21045;-74
2023/10/07 00:46:28;;;;;;;2.38;1.23;;;;;;;15.55;nan;99536.38;2114739;28;21359;-73
2023/10/07 00:47:29;;;;;;;6.57;1.55;;;;;;;15.55;nan;99533.66;2114371;28;20032;-72
2023/10/07 00:48:38;;;;;;;4.68;1.42;;;;;;;15.53;nan;99521.22;2106144;28;20979;-73
2023/10/07 00:49:54;;;;;;;7.80;1.92;;;;;;;15.54;nan;99519.31;2099894;28;20053;-73
2023/10/07 00:50:55;;;;;;;6.00;1.48;;;;;;;15.55;nan;99520.13;2110479;27;20024;-73
2023/10/07 00:51:58;;;;;;;11.90;1.75;;;;;;;15.56;nan;99535.25;2097494;28;20099;-73
2023/10/07 00:53:05;;;;;;;10.05;1.40;;;;;;;15.57;nan;99523.28;2100633;28;20174;-73
2023/10/07 00:54:18;;;;;;;3.67;1.40;;;;;;;15.56;nan;99516.28;2102033;28;20132;-73
2023/10/07 00:55:31;;;;;;;3.53;1.38;;;;;;;15.56;nan;99511.66;2092827;28;20044;-72
2023/10/07 00:56:36;;;;;;;4.35;1.52;;;;;;;15.56;nan;99508.16;2107915;28;20126;-72
2023/10/07 00:57:47;;;;;;;6.78;1.50;;;;;;;15.57;nan;99513.22;2114556;28;20149;-74
2023/10/07 00:58:52;;;;;;;5.43;1.45;;;;;;;15.58;nan;99508.63;2098981;28;20075;-72
2023/10/07 00:59:57;;;;;;;4.25;1.40;;;;;;;15.59;nan;99510.19;2097981;28;20036;-73
2023/10/07 01:01:05;;;;;;;6.18;1.55;;;;;;;15.60;nan;99498.22;2098611;28;20086;-73
2023/10/07 01:02:10;;;;;;;6.45;1.63;;;;;;;15.60;nan;99498.22;2107038;28;20031;-73
2023/10/07 01:03:18;;;;;;;4.55;1.35;;;;;;;15.59;nan;99507.47;2107339;28;20110;-73
2023/10/07 01:04:25;;;;;;;5.97;1.60;;;;;;;15.58;nan;99500.50;2113808;27;20029;-73
2023/10/07 01:05:27;;;;;;;3.45;1.33;;;;;;;15.62;nan;99499.47;2105501;28;20053;-75
2023/10/07 01:06:32;;;;;;;5.18;1.45;;;;;;;15.65;nan;99516.97;2089379;28;20899;-74
2023/10/07 01:07:34;;;;;;;5.20;1.45;;;;;;;15.66;nan;99507.69;2090264;28;20065;-75
2023/10/07 01:08:40;;;;;;;3.05;1.20;;;;;;;15.66;nan;99484.09;2088833;28;20033;-75
2023/10/07 01:09:58;;;;;;;5.55;1.20;;;;;;;15.64;nan;99499.13;2113745;27;20070;-76
2023/10/07 01:11:39;;;;;;;2.05;1.00;;;;;;;15.65;nan;99515.03;2123030;27;21042;-76
2023/10/07 01:12:36;;;;;;;4.65;1.20;;;;;;;15.68;nan;99491.94;2116791;27;20056;-75
2023/10/07 01:13:48;;;;;;;2.78;1.23;;;;;;;15.69;nan;99488.09;2122992;27;20847;-75
2023/10/07 01:14:52;;;;;;;3.65;1.25;;;;;;;15.67;nan;99506.63;2122878;27;20094;-76
2023/10/07 01:15:58;;;;;;;6.05;1.50;;;;;;;15.66;nan;99475.19;2115034;27;20029;-75
2023/10/07 01:17:00;;;;;;;5.03;1.33;;;;;;;15.65;nan;99500.72;2115020;27;20135;-75
2023/10/07 01:18:05;;;;;;;4.85;1.30;;;;;;;15.66;nan;99494.16;2106474;28;20020;-75
2023/10/07 01:19:19;;;;;;;5.95;1.40;;;;;;;15.67;nan;99484.94;2091308;28;20042;-75
2023/10/07 01:20:34;;;;;;;4.25;1.40;;;;;;;15.66;nan;99491.44;2084628;28;20824;-75
2023/10/07 01:21:44;;;;;;;3.45;1.33;;;;;;;15.67;nan;99501.19;2094955;28;20936;-75
2023/10/07 01:23:06;;;;;;;3.95;1.30;;;;;;;15.67;nan;99479.53;2105636;28;20111;-75
2023/10/07 01:24:07;;;;;;;7.45;1.38;;;;;;;15.66;nan;99467.06;2103364;27;20020;-74
2023/10/07 01:25:10;;;;;;;3.22;1.30;;;;;;;15.68;nan;99467.53;2097023;28;20037;-75
2023/10/07 01:26:21;;;;;;;5.57;1.60;;;;;;;15.68;nan;99465.63;2106066;28;20036;-74
2023/10/07 01:28:27;;;;;;;3.95;1.30;;;;;;;15.68;nan;99441.25;2106363;28;20886;-75
2023/10/07 01:29:29;;;;;;;2.75;1.27;;;;;;;15.69;nan;99439.31;2105768;28;20091;-75
2023/10/07 01:30:34;;;;;;;4.28;1.35;;;;;;;15.69;nan;99439.31;2097483;28;20032;-75
2023/10/07 01:31:40;;;;;;;2.65;1.30;;;;;;;15.68;nan;99421.47;2089775;28;20037;-75
2023/10/07 01:32:53;;;;;;;3.28;1.38;;;;;;;15.66;nan;99431.84;2090714;28;20158;-74
2023/10/07 01:34:00;;;;;;;4.80;1.50;;;;;;;15.68;nan;99410.66;2100628;28;20031;-73
2023/10/07 01:35:11;;;;;;;5.03;1.40;;;;;;;15.68;nan;99397.09;2089997;28;20905;-72
2023/10/07 01:37:20;;;;;;;5.18;1.25;;;;;;;15.69;nan;99385.13;2097348;28;20044;-72
2023/10/07 01:38:24;;;;;;;3.20;1.30;;;;;;;15.68;nan;99383.56;2096892;28;20028;-73
2023/10/07 01:39:26;;;;;;;8.38;1.40;;;;;;;15.70;nan;99397.56;2105999;28;20064;-74
2023/10/07 01:40:41;;;;;;;5.22;1.50;;;;;;;15.69;nan;99385.13;2105740;28;20083;-73
2023/10/07 01:41:46;;;;;;;2.20;1.20;;;;;;;15.68;nan;99389.75;2101677;28;20037;-73
2023/10/07 01:42:53;;;;;;;3.88;1.20;;;;;;;15.68;nan;99386.25;2098191;28;20063;-74
2023/10/07 01:44:04;;;;;;;5.28;1.10;;;;;;;15.69;nan;99379.69;2089591;28;20044;-75
2023/10/07 01:45:22;;;;;;;8.05;1.30;;;;;;;15.68;nan;99392.47;2084969;28;20028;-74
2023/10/07 01:46:27;;;;;;;3.85;1.33;;;;;;;15.69;nan;99401.38;2093907;28;20920;-74
2023/10/07 01:47:29;;;;;;;3.33;1.20;;;;;;;15.72;nan;99416.94;2098037;28;20048;-74
2023/10/07 01:48:35;;;;;;;3.58;1.10;;;;;;;15.72;nan;99406.91;2097399;28;20021;-73
2023/10/07 01:49:39;;;;;;;5.63;1.30;;;;;;;15.74;nan;99390.31;2086058;28;20272;-73
2023/10/07 01:50:43;;;;;;;3.50;1.40;;;;;;;15.77;nan;99400.47;2105335;28;20028;-73
2023/10/07 01:51:47;;;;;;;2.63;1.15;;;;;;;15.77;nan;99388.84;2106384;28;20032;-73
2023/10/07 01:52:52;;;;;;;3.80;1.58;;;;;;;15.80;nan;99397.09;2105636;28;20093;-73
2023/10/07 01:54:00;;;;;;;2.63;1.02;;;;;;;15.82;nan;99407.56;2096456;28;20057;-73
2023/10/07 01:55:08;;;;;;;6.05;1.55;;;;;;;15.81;nan;99382.38;2109877;27;20031;-73
2023/10/07 01:56:15;;;;;;;3.15;1.20;;;;;;;15.81;nan;99384.31;2115004;27;20024;-73
2023/10/07 01:57:17;;;;;;;8.32;1.30;;;;;;;15.83;nan;99395.63;2106283;28;20025;-73
2023/10/07 01:58:19;;;;;;;5.22;1.20;;;;;;;15.83;nan;99407.25;2106098;27;20040;-73
2023/10/07 01:59:22;;;;;;;4.13;1.38;;;;;;;15.85;nan;99390.63;2104987;28;20858;-73
2023/10/07 02:00:40;;;;;;;2.70;1.13;;;;;;;15.86;nan;99416.63;2089201;28;20048;-73
2023/10/07 02:01:42;;;;;;;3.40;0.98;;;;;;;15.86;nan;99411.97;2110561;27;20090;-73
2023/10/07 02:02:49;;;;;;;2.33;1.10;;;;;;;15.86;nan;99414.69;2097211;28;20103;-73
2023/10/07 02:03:51;;;;;;;2.55;1.05;;;;;;;15.87;nan;99412.75;2091592;28;20099;-72
2023/10/07 02:04:55;;;;;;;2.55;1.00;;;;;;;15.87;nan;99418.97;2104834;28;20886;-72
2023/10/07 02:05:57;;;;;;;1.88;1.00;;;;;;;15.89;nan;99421.31;2105360;28;20053;-73
2023/10/07 02:06:58;;;;;;;9.20;1.33;;;;;;;15.89;nan;99419.44;2105806;27;21297;-73
2023/10/07 02:08:03;;;;;;;5.50;1.20;;;;;;;15.89;nan;99427.56;2097332;28;20061;-73
2023/10/07 02:09:06;;;;;;;3.33;1.30;;;;;;;15.90;nan;99437.25;2088571;28;20065;-73
2023/10/07 02:10:19;;;;;;;3.75;0.90;;;;;;;15.92;nan;99423.34;2097423;28;20036;-73
2023/10/07 02:11:28;;;;;;;5.03;1.10;;;;;;;15.93;nan;99423.03;2100974;28;20037;-73
2023/10/07 02:12:32;;;;;;;4.97;1.00;;;;;;;15.92;nan;99415.22;2106586;28;20844;-73
2023/10/07 02:13:35;;;;;;;2.22;0.77;;;;;;;15.97;nan;99437.47;2097000;28;21135;-73
2023/10/07 02:14:38;;;;;;;4.45;0.93;;;;;;;15.98;nan;99428.22;2097177;28;20067;-73
2023/10/07 02:15:42;;;;;;;1.60;0.90;;;;;;;16.01;nan;99413.16;2097754;28;20115;-73
2023/10/07 02:16:44;;;;;;;5.05;0.82;;;;;;;16.01;nan;99396.91;2081333;28;20986;-73
2023/10/07 02:17:47;;;;;;;3.15;0.73;;;;;;;16.03;nan;99416.34;2076868;28;20893;-73
2023/10/07 02:18:51;;;;;;;2.42;0.93;;;;;;;16.04;nan;99393.50;2106001;27;20029;-74
2023/10/07 02:19:53;;;;;;;2.60;1.00;;;;;;;16.06;nan;99404.03;2108735;28;20016;-73
2023/10/07 02:21:16;;;;;;;3.20;0.90;;;;;;;16.07;nan;99406.38;2096989;28;20061;-73
2023/10/07 02:22:28;;;;;;;4.13;1.00;;;;;;;16.07;nan;99400.97;2094822;28;20137;-73
2023/10/07 02:23:43;;;;;;;4.80;1.00;;;;;;;16.07;nan;99400.16;2080483;28;20096;-73
2023/10/07 02:24:53;;;;;;;2.33;0.70;;;;;;;16.08;nan;99396.31;2083781;28;20034;-73
2023/10/07 02:25:57;;;;;;;4.30;0.70;;;;;;;16.09;nan;99414.19;2074518;28;20038;-73
2023/10/07 02:27:05;;;;;;;1.33;0.70;;;;;;;16.09;nan;99392.50;2082482;28;20032;-74
2023/10/07 02:28:09;;;;;;;3.53;1.10;;;;;;;16.09;nan;99389.78;2098003;28;20075;-74
2023/10/07 02:29:13;;;;;;;3.13;1.10;;;;;;;16.09;nan;99397.91;2080286;28;20880;-74
2023/10/07 02:30:25;;;;;;;5.07;0.95;;;;;;;16.08;nan;99374.63;2089994;28;20091;-74
2023/10/07 02:31:41;;;;;;;1.88;0.60;;;;;;;16.09;nan;99392.50;2098849;28;20094;-75
2023/10/07 02:32:46;;;;;;;4.85;0.98;;;;;;;16.09;nan;99396.00;2083772;28;20033;-75
2023/10/07 02:33:52;;;;;;;3.58;0.80;;;;;;;16.09;nan;99378.94;2082928;28;20033;-75
2023/10/07 02:34:55;;;;;;;3.05;1.05;;;;;;;16.10;nan;99384.00;2089337;28;20910;-75
2023/10/07 02:35:58;;;;;;;2.88;1.13;;;;;;;16.10;nan;99381.28;2096785;28;21440;-75
2023/10/07 02:37:12;;;;;;;4.07;1.08;;;;;;;16.12;nan;99367.41;2105858;28;20973;-75
2023/10/07 02:38:24;;;;;;;3.28;0.93;;;;;;;16.11;nan;99369.34;2114144;28;20039;-75
2023/10/07 02:39:39;;;;;;;3.75;0.90;;;;;;;16.13;nan;99358.13;2105276;27;20883;-75
2023/10/07 02:40:49;;;;;;;2.88;0.80;;;;;;;16.15;nan;99342.31;2107698;28;20027;-75
2023/10/07 02:41:51;;;;;;;5.25;1.08;;;;;;;16.16;nan;99354.72;2106556;28;20784;-75
2023/10/07 02:42:54;;;;;;;5.40;0.98;;;;;;;16.16;nan;99373.72;2088754;28;20061;-75
2023/10/07 02:44:09;;;;;;;2.83;0.60;;;;;;;16.14;nan;99365.13;2081482;28;20037;-75
2023/10/07 02:45:20;;;;;;;4.70;1.17;;;;;;;16.16;nan;99371.00;2100904;28;20037;-75
2023/10/07 02:46:34;;;;;;;1.55;0.52;;;;;;;16.16;nan;99354.72;2105379;28;20033;-75
2023/10/07 02:47:41;;;;;;;4.18;0.90;;;;;;;16.14;nan;99351.56;2092088;28;20793;-75
2023/10/07 02:48:45;;;;;;;2.97;0.70;;;;;;;16.14;nan;99346.13;2106522;28;20037;-75
2023/10/07 02:49:50;;;;;;;2.60;0.82;;;;;;;16.13;nan;99360.84;2105592;28;20033;-75
2023/10/07 02:50:52;;;;;;;2.55;0.60;;;;;;;16.13;nan;99386.03;2089240;28;20037;-75
2023/10/07 02:51:56;;;;;;;3.80;0.75;;;;;;;16.11;nan;99363.91;2072549;28;20042;-75
2023/10/07 02:53:02;;;;;;;2.60;0.85;;;;;;;16.14;nan;99373.25;2082151;28;20178;-75
2023/10/07 02:54:15;;;;;;;3.05;0.80;;;;;;;16.15;nan;99367.50;2087412;28;20072;-75
2023/10/07 02:56:29;;;;;;;11.40;1.05;;;;;;;16.15;nan;99353.94;2096912;28;20037;-76
2023/10/07 02:57:39;;;;;;;3.00;0.60;;;;;;;16.15;nan;99366.72;2089363;28;20022;-76
2023/10/07 02:58:51;;;;;;;4.22;0.82;;;;;;;16.15;nan;99359.38;2098539;28;20083;-76
2023/10/07 03:00:01;;;;;;;2.42;0.70;;;;;;;16.15;nan;99358.59;2108305;27;20036;-75
2023/10/07 03:01:16;;;;;;;3.08;1.30;;;;;;;16.16;nan;99349.31;2106550;28;20024;-73
2023/10/07 03:04:34;;;;;;;4.18;1.08;;;;;;;16.14;nan;99357.78;2098887;28;20029;-72
2023/10/07 03:05:44;;;;;;;2.13;0.80;;;;;;;16.15;nan;99364.00;2106655;28;20055;-72
2023/10/07 03:06:46;;;;;;;4.30;1.58;;;;;;;16.15;nan;99347.72;2113930;28;20024;-72
2023/10/07 03:08:01;;;;;;;6.78;0.80;;;;;;;16.15;nan;99366.72;2105161;28;20072;-72
2023/10/07 03:09:10;;;;;;;3.45;0.90;;;;;;;16.17;nan;99342.72;2089307;28;20164;-73
2023/10/07 03:10:18;;;;;;;3.20;0.82;;;;;;;16.16;nan;99344.66;2103046;28;20949;-72
2023/10/07 03:11:21;;;;;;;2.88;0.80;;;;;;;16.16;nan;99349.31;2106775;28;20032;-73
2023/10/07 03:12:29;;;;;;;6.55;1.05;;;;;;;16.17;nan;99367.97;2096893;28;20041;-72
2023/10/07 03:13:37;;;;;;;6.00;1.02;;;;;;;16.16;nan;99365.56;2098752;28;21451;-73
2023/10/07 03:14:43;;;;;;;8.18;1.08;;;;;;;16.15;nan;99358.59;2089539;28;21026;-73
2023/10/07 03:16:09;;;;;;;3.90;0.90;;;;;;;16.14;nan;99359.69;2074161;28;20034;-74
2023/10/07 03:17:18;;;;;;;4.75;0.80;;;;;;;16.12;nan;99346.50;2094890;28;20959;-73
2023/10/07 03:18:23;;;;;;;3.92;1.10;;;;;;;16.12;nan;99367.41;2113801;28;20101;-73
2023/10/07 03:19:52;;;;;;;7.07;1.00;;;;;;;16.09;nan;99316.56;2106041;28;21011;-73
2023/10/07 03:21:00;;;;;;;7.68;1.05;;;;;;;16.11;nan;99352.25;2104555;28;20768;-73
2023/10/07 03:22:15;;;;;;;7.70;1.30;;;;;;;16.13;nan;99366.25;2092311;28;20042;-73
2023/10/07 03:23:26;;;;;;;6.25;0.88;;;;;;;16.12;nan;99360.06;2098773;28;20757;-73
2023/10/07 03:24:41;;;;;;;7.68;1.05;;;;;;;16.14;nan;99363.22;2086317;28;20875;-73
2023/10/07 03:27:05;;;;;;;2.63;0.77;;;;;;;16.11;nan;99374.75;2093101;28;20030;-73
2023/10/07 03:28:16;;;;;;;5.40;0.90;;;;;;;16.11;nan;99363.09;2089567;28;20809;-73
2023/10/07 03:29:30;;;;;;;5.18;0.90;;;;;;;16.11;nan;99363.09;2091182;28;20936;-73
2023/10/07 03:30:36;;;;;;;7.78;1.35;;;;;;;16.11;nan;99372.03;2099096;28;20874;-73
2023/10/07 03:32:55;;;;;;;9.20;1.10;;;;;;;16.11;nan;99361.19;2097779;28;20749;-73
2023/10/07 03:34:00;;;;;;;4.13;0.82;;;;;;;16.11;nan;99376.66;2094293;28;20029;-73
2023/10/07 03:35:16;;;;;;;5.88;0.85;;;;;;;16.11;nan;99392.91;2090444;28;20076;-72
2023/10/07 03:37:25;;;;;;;5.10;0.90;;;;;;;16.09;nan;99376.22;2098527;28;20035;-73
2023/10/07 03:38:28;;;;;;;5.13;0.90;;;;;;;16.09;nan;99373.50;2106978;28;20036;-73
2023/10/07 03:40:59;;;;;;;7.63;1.10;;;;;;;16.08;nan;99352.94;2095454;28;20151;-73
2023/10/07 03:42:02;;;;;;;6.53;0.80;;;;;;;16.08;nan;99380.06;2098973;28;20843;-74
2023/10/07 03:43:08;;;;;;;7.82;1.00;;;;;;;16.06;nan;99376.91;2089891;28;20021;-73
2023/10/07 03:44:10;;;;;;;5.97;0.88;;;;;;;16.03;nan;99367.53;2091766;28;20029;-73
2023/10/07 03:45:14;;;;;;;6.45;0.85;;;;;;;16.02;nan;99382.22;2092719;28;20036;-73
2023/10/07 03:46:17;;;;;;;6.63;1.08;;;;;;;16.01;nan;99393.41;2098523;28;20791;-74
2023/10/07 03:47:21;;;;;;;10.90;1.20;;;;;;;16.01;nan;99382.56;2090072;28;20121;-74
2023/10/07 03:48:31;;;;;;;7.45;1.23;;;;;;;15.99;nan;99375.56;2107462;28;20025;-74
2023/10/07 03:49:39;;;;;;;6.70;0.98;;;;;;;15.98;nan;99382.13;2106596;28;20863;-74
2023/10/07 03:50:48;;;;;;;11.55;1.00;;;;;;;15.97;nan;99385.97;2092555;28;20026;-75
2023/10/07 03:52:03;;;;;;;8.57;1.13;;;;;;;15.94;nan;99413.75;2091875;28;20071;-74
2023/10/07 03:53:05;;;;;;;11.93;1.00;;;;;;;15.89;nan;99396.94;2093761;28;20108;-76
2023/10/07 03:54:11;;;;;;;11.02;1.05;;;;;;;15.92;nan;99401.66;2096653;28;20061;-75
2023/10/07 03:55:18;;;;;;;6.80;1.00;;;;;;;15.91;nan;99384.63;2106829;28;20035;-75
2023/10/07 03:56:27;;;;;;;10.40;1.42;;;;;;;15.89;nan;99389.63;2099764;28;20033;-74
2023/10/07 03:57:29;;;;;;;12.32;2.33;;;;;;;15.92;nan;99399.78;2090555;28;20046;-75
2023/10/07 03:58:32;;;;;;;5.82;1.27;;;;;;;15.92;nan;99394.34;2089956;28;20034;-74
2023/10/07 03:59:40;;;;;;;7.40;1.50;;;;;;;15.91;nan;99392.75;2099030;28;20033;-74
2023/10/07 04:00:46;;;;;;;8.57;1.20;;;;;;;15.90;nan;99396.59;2096332;28;20021;-73
2023/10/07 04:01:53;;;;;;;6.80;1.00;;;;;;;15.90;nan;99404.72;2090286;28;20883;-73
2023/10/07 04:03:01;;;;;;;5.32;1.00;;;;;;;15.89;nan;99394.22;2091534;28;20673;-74
2023/10/07 04:04:03;;;;;;;13.93;1.92;;;;;;;15.88;nan;99398.84;2090720;28;20014;-74
2023/10/07 04:05:10;;;;;;;19.67;1.48;;;;;;;15.86;nan;99411.97;2090922;28;20057;-74
2023/10/07 04:06:12;;;;;;;6.63;1.30;;;;;;;15.83;nan;99415.38;2082179;28;20033;-73
2023/10/07 04:07:13;;;;;;;8.70;1.27;;;;;;;15.79;nan;99411.75;2081903;28;20038;-74
2023/10/07 04:08:15;;;;;;;6.45;1.10;;;;;;;15.78;nan;99398.53;2081490;28;20061;-74
2023/10/07 04:09:17;;;;;;;6.95;1.15;;;;;;;15.74;nan;99433.69;2078927;28;20030;-75
2023/10/07 04:10:31;;;;;;;12.98;1.58;;;;;;;15.73;nan;99419.34;2092541;28;20034;-75
2023/10/07 04:11:48;;;;;;;8.07;1.15;;;;;;;15.72;nan;99416.94;2102037;28;20059;-76
2023/10/07 04:12:56;;;;;;;11.13;2.42;;;;;;;15.70;nan;99425.44;2115120;28;20024;-76
2023/10/07 04:13:59;;;;;;;7.35;1.42;;;;;;;15.70;nan;99438.19;2097983;28;21014;-76
2023/10/07 04:15:02;;;;;;;14.75;4.10;;;;;;;15.65;nan;99427.56;2098747;28;20021;-74
2023/10/07 04:16:14;;;;;;;12.55;1.77;;;;;;;15.62;nan;99428.22;2123147;27;20062;-76
2023/10/07 04:17:16;;;;;;;13.48;1.63;;;;;;;15.60;nan;99416.94;2123515;27;20023;-75
2023/10/07 04:18:23;;;;;;;12.18;1.98;;;;;;;15.53;nan;99426.41;2097784;28;20832;-73
2023/10/07 04:21:13;;;;;;;11.57;2.08;;;;;;;15.53;nan;99426.41;2092408;28;20031;-73
2023/10/07 04:21:51;;;;;;;10.65;2.03;;;;;;;15.52;nan;99441.09;2099368;28;20040;-71
2023/10/07 04:23:00;;;;;;;13.65;1.58;;;;;;;15.52;nan;99437.59;2106514;28;20078;-74
2023/10/07 04:24:05;;;;;;;9.00;1.40;;;;;;;15.46;nan;99447.88;2099158;28;20017;-74
2023/10/07 04:25:17;;;;;;;10.80;1.60;;;;;;;15.47;nan;99446.72;2095886;27;20907;-73
2023/10/07 04:26:19;;;;;;;8.52;1.83;;;;;;;15.43;nan;99429.59;2090479;28;20063;-73
2023/10/07 04:27:22;;;;;;;16.10;1.90;;;;;;;15.38;nan;99440.63;2090310;28;20044;-74
2023/10/07 04:28:25;;;;;;;14.77;1.77;;;;;;;15.37;nan;99439.06;2114707;28;20767;-74
2023/10/07 04:29:28;;;;;;;9.15;1.42;;;;;;;15.35;nan;99454.84;2114464;28;20028;-76
2023/10/07 04:30:39;;;;;;;15.68;1.92;;;;;;;15.27;nan;99437.59;2106264;28;20054;-76
2023/10/07 04:31:45;;;;;;;12.95;1.75;;;;;;;15.26;nan;99448.75;2106518;28;20883;-75
2023/10/07 04:32:53;;;;;;;19.65;3.50;;;;;;;15.27;nan;99444.91;2097521;28;20029;-75
2023/10/07 04:33:55;;;;;;;11.30;1.73;;;;;;;15.26;nan;99471.22;2083927;28;20042;-73
2023/10/07 04:35:15;;;;;;;12.95;1.30;;;;;;;15.24;nan;99453.72;2096572;28;20975;-74
2023/10/07 04:36:54;;;;;;;15.70;1.98;;;;;;;15.24;nan;99462.63;2097314;28;20951;-76
2023/10/07 04:38:09;;;;;;;15.88;1.83;;;;;;;15.22;nan;99456.75;2109458;28;20024;-76
2023/10/07 04:39:17;;;;;;;17.00;2.03;;;;;;;15.17;nan;99475.94;2113079;28;20032;-76
2023/10/07 04:42:36;;;;;;;11.18;1.60;;;;;;;15.14;nan;99476.59;2104415;28;20151;-76
2023/10/07 04:43:48;;;;;;;11.18;1.38;;;;;;;15.12;nan;99470.72;2103600;28;20035;-75
2023/10/07 04:45:56;;;;;;;11.20;1.90;;;;;;;15.09;nan;99476.03;2095697;28;20729;-74
2023/10/07 04:47:20;;;;;;;14.80;1.48;;;;;;;15.07;nan;99481.78;2079874;28;20026;-74
2023/10/07 04:48:54;;;;;;;15.52;1.50;;;;;;;15.06;nan;99483.66;2095665;28;20024;-75
2023/10/07 04:51:24;;;;;;;12.05;1.45;;;;;;;14.99;nan;99493.47;2091228;28;20045;-74
2023/10/07 04:52:30;;;;;;;7.78;1.35;;;;;;;14.94;nan;99502.63;2104797;28;20076;-74
2023/10/07 04:53:43;;;;;;;9.80;1.23;;;;;;;14.92;nan;99480.50;2095126;28;20103;-75
2023/10/07 04:54:52;;;;;;;14.05;1.75;;;;;;;14.91;nan;99497.88;2091753;28;21122;-74
2023/10/07 04:56:01;;;;;;;17.23;1.85;;;;;;;14.89;nan;99493.91;2096555;28;20051;-74
2023/10/07 04:57:10;;;;;;;13.35;2.08;;;;;;;14.86;nan;99495.34;2105608;28;20028;-75
2023/10/07 04:58:12;;;;;;;13.07;1.55;;;;;;;14.84;nan;99498.38;2103857;28;20029;-75
2023/10/07 04:59:17;;;;;;;11.60;1.77;;;;;;;14.82;nan;99511.47;2087563;28;21177;-75
2023/10/07 05:01:33;;;;;;;14.85;1.80;;;;;;;14.79;nan;99503.22;2106528;28;20032;-75
2023/10/07 05:02:35;;;;;;;16.55;2.15;;;;;;;14.77;nan;99483.81;2104858;28;20048;-75
2023/10/07 05:03:37;;;;;;;15.32;1.45;;;;;;;14.75;nan;99505.00;2104903;28;20058;-75
2023/10/07 05:04:49;;;;;;;13.80;1.83;;;;;;;14.71;nan;99509.50;2104192;28;20071;-75
2023/10/07 05:05:55;;;;;;;15.82;2.47;;;;;;;14.72;nan;99514.59;2104523;28;20444;-75
2023/10/07 05:06:57;;;;;;;12.40;1.85;;;;;;;14.70;nan;99513.31;2096601;28;20057;-75
2023/10/07 05:08:08;;;;;;;13.50;1.85;;;;;;;14.67;nan;99520.19;2096249;28;20045;-75
2023/10/07 05:09:10;;;;;;;14.75;1.60;;;;;;;14.60;nan;99503.72;2097989;28;20036;-75
2023/10/07 05:10:13;;;;;;;12.77;1.88;;;;;;;14.64;nan;99514.66;2103899;28;20087;-75
2023/10/07 05:11:20;;;;;;;8.73;1.80;;;;;;;14.63;nan;99502.22;2105387;28;20115;-75
2023/10/07 05:12:22;;;;;;;11.95;2.80;;;;;;;14.63;nan;99510.34;2096767;28;20049;-75
2023/10/07 05:13:24;;;;;;;14.63;2.17;;;;;;;14.60;nan;99517.22;2080000;28;20111;-75
2023/10/07 05:14:29;;;;;;;9.95;1.33;;;;;;;14.58;nan;99505.94;2088604;28;20087;-75
2023/10/07 05:15:41;;;;;;;15.82;1.98;;;;;;;14.59;nan;99513.72;2106773;27;20033;-75
2023/10/07 05:16:46;;;;;;;;;;;;;;;14.57;nan;99515.97;2115079;27;20036;-74
2023/10/07 05:17:52;;;;;;;11.38;1.95;;;;;;;14.55;nan;99518.22;2117907;27;19912;-75
2023/10/07 05:18:54;;;;;;;12.70;1.75;;;;;;;14.56;nan;99506.28;2096267;28;20847;-75
2023/10/07 05:19:58;;;;;;;12.68;1.95;;;;;;;14.57;nan;99526.78;2088104;28;20041;-75
2023/10/07 05:21:04;;;;;;;12.07;1.63;;;;;;;14.56;nan;99517.09;2113343;27;20031;-74
2023/10/07 05:22:14;;;;;;;10.07;1.88;;;;;;;14.51;nan;99522.69;2103923;28;20032;-74
2023/10/07 05:23:21;;;;;;;11.65;2.05;;;;;;;14.48;nan;99517.91;2098877;28;20040;-75
2023/10/07 05:24:28;;;;;;;14.13;1.85;;;;;;;14.46;nan;99516.66;2096107;28;20041;-75
2023/10/07 05:25:38;;;;;;;12.60;1.70;;;;;;;14.44;nan;99530.53;2094652;28;20894;-75
2023/10/07 05:26:40;;;;;;;8.30;1.40;;;;;;;14.44;nan;99544.06;2097422;28;20040;-75
2023/10/07 05:27:42;;;;;;;16.65;1.95;;;;;;;14.43;nan;99523.50;2079968;28;20064;-74
2023/10/07 05:28:46;;;;;;;12.30;1.67;;;;;;;14.46;nan;99532.88;2088191;28;20884;-74
2023/10/07 05:29:53;;;;;;;12.90;1.58;;;;;;;14.42;nan;99530.06;2105066;28;20130;-75
2023/10/07 05:30:57;;;;;;;10.88;1.92;;;;;;;14.44;nan;99532.41;2105109;28;20024;-74
2023/10/07 05:32:02;;;;;;;16.40;1.90;;;;;;;14.45;nan;99544.84;2105109;28;20974;-75
2023/10/07 05:33:08;;;;;;;11.10;1.60;;;;;;;14.44;nan;99541.34;2104554;28;20902;-74
2023/10/07 05:34:12;;;;;;;16.35;2.00;;;;;;;14.41;nan;99552.81;2089664;28;20749;-74
2023/10/07 05:35:15;;;;;;;12.40;1.27;;;;;;;14.39;nan;99546.94;2097171;28;20025;-75
2023/10/07 05:36:21;;;;;;;11.85;1.55;;;;;;;14.39;nan;99557.75;2105195;28;20021;-75
2023/10/07 05:37:26;;;;;;;11.32;1.42;;;;;;;14.37;nan;99544.56;2113330;28;20890;-75
2023/10/07 05:38:28;;;;;;;16.13;1.90;;;;;;;14.36;nan;99550.28;2104593;28;20029;-75
2023/10/07 05:39:32;;;;;;;14.95;2.15;;;;;;;14.34;nan;99550.63;2097112;28;20140;-75
2023/10/07 05:40:34;;;;;;;9.90;1.58;;;;;;;14.35;nan;99548.72;2081940;28;20046;-74
2023/10/07 05:41:39;;;;;;;12.77;2.17;;;;;;;14.38;nan;99565.06;2087189;28;20038;-74
2023/10/07 05:42:43;;;;;;;12.32;2.72;;;;;;;14.34;nan;99533.59;2097048;28;20041;-75